createdAt,value
2023-03-23T15:59:40.720Z,4.75
2023-03-23T16:02:09.792Z,4.75
2023-03-23T16:04:37.646Z,5.68
2023-03-23T16:07:05.186Z,5.43
2023-03-23T16:09:32.254Z,4.85
2023-03-23T16:11:59.379Z,5.47
2023-03-23T16:14:26.438Z,4.95
2023-03-23T16:16:53.721Z,5.43
2023-03-23T16:19:24.697Z,5.05
2023-03-23T16:21:51.820Z,6.53
2023-03-23T16:24:19.150Z,5.38
2023-03-23T16:26:46.836Z,4.80
2023-03-23T16:29:24.392Z,4.47
2023-03-23T16:32:01.515Z,4.10
2023-03-23T16:34:30.148Z,4.28
2023-03-23T16:36:57.119Z,4.53
2023-03-23T16:39:24.168Z,3.88
2023-03-23T16:41:51.942Z,3.75
2023-03-23T16:44:19.652Z,3.40
2023-03-23T16:46:47.238Z,3.58
2023-03-23T16:49:14.487Z,3.60
2023-03-23T16:51:43.041Z,3.78
2023-03-23T16:54:10.956Z,3.33
2023-03-23T16:56:38.401Z,3.10
2023-03-23T16:59:08.719Z,2.90
2023-03-23T17:01:36.163Z,3.72
2023-03-23T17:04:03.211Z,3.67
2023-03-23T17:06:30.192Z,3.30
2023-03-23T17:08:57.234Z,3.38
2023-03-23T17:11:24.180Z,2.70
2023-03-23T17:13:51.413Z,2.88
2023-03-23T17:16:18.471Z,2.83
2023-03-23T17:18:45.795Z,2.70
2023-03-23T17:21:12.790Z,3.15
2023-03-23T17:23:39.765Z,3.20
2023-03-23T17:26:07.240Z,2.67
2023-03-23T17:28:34.344Z,3.00
2023-03-23T17:31:01.648Z,3.13
2023-03-23T17:33:28.834Z,2.80
2023-03-23T17:35:56.194Z,3.00
2023-03-23T17:38:23.275Z,2.92
2023-03-23T17:40:57.267Z,3.13
2023-03-23T17:43:24.282Z,3.33
2023-03-23T17:45:51.295Z,3.90
2023-03-23T17:48:18.245Z,4.10
2023-03-23T17:50:48.959Z,4.15
2023-03-23T17:53:16.316Z,4.03
2023-03-23T17:55:43.621Z,4.00
2023-03-23T17:58:12.113Z,4.15
2023-03-23T18:00:39.120Z,4.32
2023-03-23T18:03:06.077Z,4.28
2023-03-23T18:05:33.115Z,4.10
2023-03-23T18:08:00.987Z,4.55
2023-03-23T18:10:28.010Z,4.30
2023-03-23T18:12:54.996Z,4.18
2023-03-23T18:15:22.138Z,4.43
2023-03-23T18:17:56.317Z,3.83
2023-03-23T18:20:23.441Z,3.78
2023-03-23T18:22:50.721Z,3.97
2023-03-23T18:25:17.918Z,4.32
2023-03-23T18:27:44.966Z,3.60
2023-03-23T18:30:12.098Z,3.83
2023-03-23T18:32:40.068Z,3.78
2023-03-23T18:35:08.375Z,3.65
2023-03-23T18:37:35.970Z,3.33
2023-03-23T18:40:05.475Z,3.90
2023-03-23T18:42:32.555Z,3.28
2023-03-23T18:45:00.052Z,2.90
2023-03-23T18:47:27.389Z,3.42
2023-03-23T18:49:55.974Z,3.03
2023-03-23T18:52:23.245Z,3.20
2023-03-23T18:54:50.355Z,3.45
2023-03-23T18:57:18.132Z,3.00
2023-03-23T18:59:45.084Z,3.33
2023-03-23T19:02:13.842Z,3.22
2023-03-23T19:04:40.894Z,2.75
2023-03-23T19:07:07.951Z,3.33
2023-03-23T19:09:35.176Z,3.10
2023-03-23T19:12:02.189Z,2.63
2023-03-23T19:14:29.184Z,2.80
2023-03-23T19:16:56.458Z,3.20
2023-03-23T19:19:24.910Z,2.85
2023-03-23T19:24:20.389Z,3.10
2023-03-23T19:26:47.970Z,2.95
2023-03-23T19:31:46.779Z,2.90
2023-03-23T19:34:14.082Z,3.10
2023-03-23T19:36:41.379Z,2.95
2023-03-23T19:39:08.896Z,2.88
2023-03-23T19:41:36.358Z,2.55
2023-03-23T19:44:04.106Z,2.50
2023-03-23T19:46:31.621Z,2.40
2023-03-23T19:48:59.011Z,2.70
2023-03-23T19:51:27.084Z,2.65
2023-03-23T19:53:58.372Z,2.50
2023-03-23T19:56:25.761Z,2.60
2023-03-23T19:58:52.814Z,2.70
2023-03-23T20:01:20.312Z,2.75
2023-03-23T20:03:48.281Z,3.08
2023-03-23T20:06:15.556Z,2.80
2023-03-23T20:08:44.099Z,3.00
2023-03-23T20:11:13.090Z,3.08
2023-03-23T20:13:40.888Z,2.85
2023-03-23T20:16:08.416Z,3.13
2023-03-23T20:18:35.790Z,3.08
2023-03-23T20:21:06.661Z,2.90
2023-03-23T20:23:34.687Z,2.72
2023-03-23T20:26:04.828Z,2.58
2023-03-23T20:28:31.972Z,2.83
2023-03-23T20:31:16.730Z,2.63
2023-03-23T20:33:49.352Z,2.58
2023-03-23T20:36:36.174Z,2.50
2023-03-23T20:39:05.697Z,2.40
2023-03-23T20:41:36.333Z,2.60
2023-03-23T20:44:04.342Z,2.80
2023-03-23T20:46:31.740Z,2.63
2023-03-23T20:48:58.730Z,2.60
2023-03-23T20:51:25.748Z,2.65
2023-03-23T20:53:53.339Z,2.05
2023-03-23T20:56:20.437Z,2.47
2023-03-23T20:58:47.775Z,2.90
2023-03-23T21:01:14.783Z,2.40
2023-03-23T21:03:42.260Z,2.55
2023-03-23T21:06:10.181Z,2.20
2023-03-23T21:08:38.107Z,2.38
2023-03-23T21:11:06.720Z,2.63
2023-03-23T21:13:33.796Z,2.50
2023-03-23T21:16:02.178Z,2.53
2023-03-23T21:18:29.714Z,2.20
2023-03-23T21:20:57.360Z,2.30
2023-03-23T21:23:26.649Z,2.33
2023-03-23T21:25:54.920Z,2.08
2023-03-23T21:28:22.220Z,2.38
2023-03-23T21:30:52.502Z,2.40
2023-03-23T21:33:20.090Z,2.50
2023-03-23T21:35:47.221Z,2.55
2023-03-23T21:38:14.931Z,2.88
2023-03-23T21:40:42.575Z,3.08
2023-03-23T21:43:16.908Z,2.70
2023-03-23T21:45:44.773Z,2.60
2023-03-23T21:48:12.660Z,2.30
2023-03-23T21:50:42.354Z,2.35
2023-03-23T21:53:13.063Z,2.33
2023-03-23T21:55:44.898Z,2.45
2023-03-23T22:00:38.860Z,2.13
2023-03-23T22:03:06.019Z,2.30
2023-03-23T22:05:33.095Z,2.10
2023-03-23T22:08:00.203Z,1.92
2023-03-23T22:10:27.214Z,2.00
2023-03-23T22:12:55.578Z,2.40
2023-03-23T22:15:27.854Z,2.53
2023-03-23T22:17:55.658Z,2.25
2023-03-23T22:20:22.998Z,2.42
2023-03-23T22:22:50.137Z,2.38
2023-03-23T22:25:17.604Z,2.40
2023-03-23T22:27:45.934Z,2.70
2023-03-23T22:30:13.236Z,2.30
2023-03-23T22:32:40.805Z,2.53
2023-03-23T22:35:08.141Z,2.42
2023-03-23T22:37:35.599Z,2.50
2023-03-23T22:40:02.694Z,2.13
2023-03-23T22:42:30.469Z,2.80
2023-03-23T22:44:57.556Z,2.50
2023-03-23T22:47:24.574Z,2.42
2023-03-23T22:49:51.583Z,2.50
2023-03-23T22:52:18.682Z,2.40
2023-03-23T22:54:45.727Z,2.20
2023-03-23T22:57:12.947Z,2.70
2023-03-23T22:59:40.946Z,2.50
2023-03-23T23:02:08.093Z,2.75
2023-03-23T23:04:35.682Z,2.33
2023-03-23T23:07:12.439Z,2.40
2023-03-23T23:09:42.071Z,2.53
2023-03-23T23:12:09.697Z,2.90
2023-03-23T23:14:37.682Z,2.78
2023-03-23T23:17:05.463Z,3.10
2023-03-23T23:19:32.851Z,2.80
2023-03-23T23:22:09.329Z,2.83
2023-03-23T23:24:46.267Z,3.05
2023-03-23T23:27:14.626Z,3.33
2023-03-23T23:29:41.745Z,3.05
2023-03-23T23:32:08.751Z,3.17
2023-03-23T23:34:36.255Z,3.20
2023-03-23T23:37:03.372Z,3.08
2023-03-23T23:39:30.523Z,3.30
2023-03-23T23:41:57.511Z,2.67
2023-03-23T23:44:24.545Z,2.83
2023-03-23T23:46:51.946Z,2.78
2023-03-23T23:49:22.988Z,2.90
2023-03-23T23:51:50.032Z,2.90
2023-03-23T23:54:22.717Z,2.70
2023-03-23T23:56:52.970Z,2.70
2023-03-23T23:59:20.032Z,3.25
